Time;durP1;ratioP1;P1;durP2;ratioP2;P2;SDS_P1;SDS_P2;PMS_P1;PMS_P2;Temp;Humidity;BMP_temperature;BMP_pressure;BME280_temperature;BME280_humidity;BME280_pressure;Samples;Min_cycle;Max_cycle;Signal;HPM_P1;HPM_P2
2023/06/21 00:00:34;;;;;;;13.68;11.35;;;;;;;17.50;100.00;101174.25;5087895;28;20036;-71
2023/06/21 00:03:00;;;;;;;16.83;11.70;;;;;;;17.56;100.00;101179.25;5083117;28;20512;-71
2023/06/21 00:05:26;;;;;;;15.65;12.68;;;;;;;17.46;100.00;101163.00;5089422;28;20468;-71
2023/06/21 00:07:53;;;;;;;14.75;11.88;;;;;;;17.57;100.00;101177.44;5083712;28;20392;-71
2023/06/21 00:10:23;;;;;;;16.38;11.95;;;;;;;17.53;100.00;101185.50;5089213;28;20031;-71
2023/06/21 00:12:49;;;;;;;13.38;11.88;;;;;;;17.52;100.00;101194.31;5083662;28;20055;-71
2023/06/21 00:15:15;;;;;;;14.85;12.05;;;;;;;17.50;100.00;101196.19;5089402;28;20067;-71
2023/06/21 00:17:40;;;;;;;14.32;12.82;;;;;;;17.49;100.00;101194.50;5082553;28;20063;-71
2023/06/21 00:20:09;;;;;;;14.70;13.20;;;;;;;17.50;100.00;101204.09;5087503;28;20027;-71
2023/06/21 00:22:35;;;;;;;15.20;12.50;;;;;;;17.52;100.00;101199.59;5084974;28;20464;-72
2023/06/21 00:25:01;;;;;;;13.32;11.93;;;;;;;17.52;100.00;101191.69;5085484;28;20020;-71
2023/06/21 00:27:26;;;;;;;14.30;11.98;;;;;;;17.51;100.00;101195.25;5090174;28;20375;-72
2023/06/21 00:29:52;;;;;;;14.80;12.57;;;;;;;17.48;100.00;101195.41;5076576;28;20043;-71
2023/06/21 00:32:17;;;;;;;16.25;12.90;;;;;;;17.44;100.00;101185.06;5085804;28;20536;-71
2023/06/21 00:34:44;;;;;;;14.65;12.80;;;;;;;17.43;100.00;101193.88;5084152;28;20036;-72
2023/06/21 00:37:11;;;;;;;15.70;13.10;;;;;;;17.39;100.00;101189.69;5086409;28;20016;-71
2023/06/21 00:39:37;;;;;;;14.10;12.48;;;;;;;17.40;100.00;101196.69;5084692;28;20035;-71
2023/06/21 00:42:02;;;;;;;18.42;13.98;;;;;;;17.36;100.00;101198.59;5085045;28;20437;-72
2023/06/21 00:44:27;;;;;;;14.43;12.90;;;;;;;17.33;100.00;101201.41;5086024;28;20028;-72
2023/06/21 00:46:53;;;;;;;15.25;13.65;;;;;;;17.33;100.00;101201.41;5084169;28;20525;-72
2023/06/21 00:49:18;;;;;;;17.83;14.63;;;;;;;17.34;100.00;101200.47;5086329;28;20024;-71
2023/06/21 00:51:45;;;;;;;17.98;13.73;;;;;;;17.37;100.00;101204.75;5086089;28;20071;-72
2023/06/21 00:54:16;;;;;;;17.10;14.77;;;;;;;17.38;100.00;101199.38;5069675;28;20468;-71
2023/06/21 00:56:42;;;;;;;17.50;14.30;;;;;;;17.36;100.00;101203.00;5077212;28;20028;-71
2023/06/21 00:59:09;;;;;;;15.73;14.02;;;;;;;17.37;100.00;101205.59;5082358;28;20024;-72
2023/06/21 01:01:36;;;;;;;17.15;14.20;;;;;;;17.34;100.00;101204.88;5085504;28;20483;-71
2023/06/21 01:04:02;;;;;;;18.67;14.35;;;;;;;17.38;100.00;101207.28;5084172;28;20102;-71
2023/06/21 01:06:45;;;;;;;15.80;14.10;;;;;;;17.30;100.00;101210.28;5083900;28;20436;-71
2023/06/21 01:09:18;;;;;;;15.75;13.95;;;;;;;17.31;100.00;101206.72;5083640;28;20032;-71
2023/06/21 01:11:57;;;;;;;22.17;15.23;;;;;;;17.34;100.00;101224.19;5069113;28;20028;-71
2023/06/21 01:14:41;;;;;;;17.38;14.02;;;;;;;17.35;100.00;101206.59;5076818;28;20024;-71
2023/06/21 01:17:09;;;;;;;16.80;15.00;;;;;;;17.28;100.00;101198.94;5069588;28;20052;-71
2023/06/21 01:19:55;;;;;;;16.15;14.02;;;;;;;17.35;100.00;101202.16;5087019;28;20024;-71
2023/06/21 01:22:20;;;;;;;18.10;13.82;;;;;;;17.32;100.00;101202.28;5073962;28;20020;-71
2023/06/21 01:25:12;;;;;;;17.13;15.33;;;;;;;17.30;100.00;101214.72;5084903;28;20487;-71
2023/06/21 01:27:52;;;;;;;17.33;15.00;;;;;;;17.30;100.00;101214.72;5083895;28;20278;-71
2023/06/21 01:30:20;;;;;;;16.85;14.60;;;;;;;17.24;100.00;101205.28;5069840;28;20040;-71
2023/06/21 01:32:47;;;;;;;17.70;15.25;;;;;;;17.27;100.00;101212.22;5083092;28;20043;-71
2023/06/21 01:35:12;;;;;;;17.90;14.00;;;;;;;17.24;100.00;101221.09;5083835;28;20047;-71
2023/06/21 01:37:42;;;;;;;19.23;14.27;;;;;;;17.20;100.00;101221.28;5084956;28;20468;-71
2023/06/21 01:40:11;;;;;;;16.40;14.68;;;;;;;17.19;100.00;101225.72;5082735;28;20024;-71
2023/06/21 01:42:37;;;;;;;16.90;14.48;;;;;;;17.21;100.00;101230.94;5083869;28;20042;-71
2023/06/21 01:45:03;;;;;;;16.98;14.38;;;;;;;17.18;100.00;101231.91;5082727;28;20024;-71
2023/06/21 01:47:28;;;;;;;16.05;13.82;;;;;;;17.15;100.00;101224.16;5079789;28;20028;-71
2023/06/21 01:49:55;;;;;;;18.65;14.55;;;;;;;17.16;100.00;101222.34;5082307;28;20024;-71
2023/06/21 01:52:20;;;;;;;17.08;14.13;;;;;;;17.05;100.00;101200.00;5084918;28;20612;-71
2023/06/21 01:54:45;;;;;;;17.08;15.13;;;;;;;17.16;100.00;101222.34;5072392;28;20031;-71
2023/06/21 01:57:14;;;;;;;18.83;14.82;;;;;;;17.19;100.00;101227.50;5081980;28;20035;-71
2023/06/21 01:59:41;;;;;;;18.63;15.27;;;;;;;17.21;100.00;101236.19;5084687;28;20046;-71
2023/06/21 02:02:08;;;;;;;16.88;15.10;;;;;;;17.19;100.00;101235.41;5082837;28;20039;-71
2023/06/21 02:04:35;;;;;;;16.83;15.13;;;;;;;17.17;100.00;101237.25;5083952;28;20028;-71
2023/06/21 02:07:02;;;;;;;17.50;14.73;;;;;;;17.12;100.00;101237.44;5084373;28;20035;-71
2023/06/21 02:09:27;;;;;;;18.50;15.30;;;;;;;17.11;100.00;101240.16;5082522;28;20111;-71
2023/06/21 02:11:52;;;;;;;17.17;15.32;;;;;;;17.08;100.00;101243.78;5086937;28;20120;-71
2023/06/21 02:14:19;;;;;;;26.90;15.70;;;;;;;17.06;100.00;101249.09;5081637;28;20035;-71
2023/06/21 02:16:45;;;;;;;17.70;14.77;;;;;;;17.08;100.00;101242.00;5087746;28;20028;-71
2023/06/21 02:19:10;;;;;;;18.95;15.70;;;;;;;17.01;100.00;101243.19;5081119;28;20387;-71
2023/06/21 02:21:37;;;;;;;20.02;15.75;;;;;;;16.98;100.00;101250.38;5073695;28;20072;-71
2023/06/21 02:24:03;;;;;;;23.95;15.27;;;;;;;16.98;100.00;101260.91;5084336;28;20017;-71
2023/06/21 02:26:28;;;;;;;17.77;15.02;;;;;;;17.00;100.00;101261.69;5080903;28;20856;-71
2023/06/21 02:28:53;;;;;;;18.45;15.57;;;;;;;17.01;100.00;101266.91;5087077;28;20394;-71
2023/06/21 02:31:19;;;;;;;18.30;15.52;;;;;;;16.99;100.00;101255.56;5080418;28;20081;-71
2023/06/21 02:33:45;;;;;;;18.55;14.68;;;;;;;16.99;100.00;101265.25;5086980;28;20020;-71
2023/06/21 02:36:13;;;;;;;20.15;15.63;;;;;;;17.01;100.00;101271.31;5080810;28;20039;-71
2023/06/21 02:38:39;;;;;;;19.23;15.65;;;;;;;16.99;100.00;101281.91;5085887;28;20357;-71
2023/06/21 02:41:05;;;;;;;16.90;15.00;;;;;;;16.98;100.00;101272.31;5081109;28;20039;-71
2023/06/21 02:43:30;;;;;;;18.65;15.65;;;;;;;16.97;100.00;101275.88;5085142;28;20073;-71
2023/06/21 02:45:56;;;;;;;18.17;15.38;;;;;;;16.97;100.00;101275.88;5082417;28;20032;-71
2023/06/21 02:48:21;;;;;;;17.10;15.05;;;;;;;16.97;100.00;101275.88;5083312;28;20379;-71
2023/06/21 02:50:48;;;;;;;19.70;15.55;;;;;;;16.92;100.00;101282.25;5083543;28;20421;-71
2023/06/21 02:53:13;;;;;;;20.83;16.67;;;;;;;16.92;100.00;101275.19;5080653;28;20017;-72
2023/06/21 02:55:39;;;;;;;17.20;15.43;;;;;;;16.94;100.00;101280.38;5080661;28;20036;-71
2023/06/21 02:58:04;;;;;;;17.23;15.43;;;;;;;16.92;100.00;101291.00;5082230;28;20527;-71
2023/06/21 03:00:31;;;;;;;18.67;15.20;;;;;;;16.89;100.00;101287.66;5083027;28;20520;-71
2023/06/21 03:03:00;;;;;;;21.83;16.35;;;;;;;16.95;100.00;101298.78;5083732;28;20107;-71
2023/06/21 03:05:30;;;;;;;20.10;16.00;;;;;;;16.89;100.00;101301.66;5082618;28;20024;-71
2023/06/21 03:07:57;;;;;;;19.10;15.48;;;;;;;16.89;100.00;101313.97;5083783;28;20063;-71
2023/06/21 03:10:23;;;;;;;18.70;15.23;;;;;;;16.82;100.00;101306.34;5082174;28;20025;-71
2023/06/21 03:12:49;;;;;;;17.23;14.80;;;;;;;16.85;100.00;101315.88;5083300;28;20028;-71
2023/06/21 03:15:14;;;;;;;16.60;14.82;;;;;;;16.83;100.00;101328.25;5083156;28;20112;-71
2023/06/21 03:17:39;;;;;;;18.27;16.02;;;;;;;16.82;100.00;101326.53;5082743;28;20311;-71
2023/06/21 03:20:11;;;;;;;18.20;15.52;;;;;;;16.85;100.00;101326.41;5084491;28;20056;-71
2023/06/21 03:22:37;;;;;;;16.85;15.05;;;;;;;16.79;100.00;101331.94;5071535;28;20089;-71
2023/06/21 03:25:02;;;;;;;24.48;16.50;;;;;;;16.79;100.00;101335.44;5083782;28;20016;-71
2023/06/21 03:27:28;;;;;;;17.33;15.48;;;;;;;16.85;100.00;101334.31;5080573;28;20136;-71
2023/06/21 03:29:53;;;;;;;17.17;15.38;;;;;;;16.85;100.00;101335.19;5077975;28;20403;-71
2023/06/21 03:32:19;;;;;;;19.08;16.17;;;;;;;16.88;100.00;101334.19;5083558;28;20028;-71
2023/06/21 03:34:45;;;;;;;19.98;16.85;;;;;;;16.89;100.00;101335.03;5077554;28;20025;-71
2023/06/21 03:37:10;;;;;;;23.58;17.02;;;;;;;16.92;100.00;101338.41;5077006;28;20031;-71
2023/06/21 03:39:38;;;;;;;21.90;17.80;;;;;;;16.97;100.00;101339.09;5082201;28;20031;-71
2023/06/21 03:42:04;;;;;;;20.77;16.42;;;;;;;17.00;100.00;101336.31;5082492;28;20112;-71
2023/06/21 03:44:29;;;;;;;23.38;17.00;;;;;;;17.06;100.00;101330.75;5083367;28;20457;-71
2023/06/21 03:46:55;;;;;;;19.98;16.88;;;;;;;17.14;100.00;101335.72;5080888;28;20115;-71
2023/06/21 03:49:21;;;;;;;19.90;16.63;;;;;;;17.20;100.00;101318.78;5085597;28;20020;-71
2023/06/21 03:51:47;;;;;;;20.73;16.40;;;;;;;17.23;100.00;101323.91;5080018;28;20064;-71
2023/06/21 03:54:12;;;;;;;24.67;17.40;;;;;;;17.19;100.00;101309.16;5086492;28;20101;-71
2023/06/21 03:56:38;;;;;;;21.10;17.05;;;;;;;17.36;100.00;101333.00;5073265;28;20496;-71
2023/06/21 03:59:03;;;;;;;20.02;16.75;;;;;;;17.38;100.00;101330.31;5084263;28;20024;-71
2023/06/21 04:01:28;;;;;;;25.05;17.20;;;;;;;17.47;100.00;101340.44;5081281;28;20036;-71
2023/06/21 04:03:54;;;;;;;22.30;17.77;;;;;;;17.47;100.00;101346.56;5086908;28;20456;-71
2023/06/21 04:06:19;;;;;;;23.13;18.15;;;;;;;17.51;100.00;101340.22;5085424;28;20029;-71
2023/06/21 04:08:45;;;;;;;21.08;17.20;;;;;;;17.49;100.00;101344.72;5079466;28;20429;-71
2023/06/21 04:11:10;;;;;;;22.08;18.33;;;;;;;17.54;100.00;101358.56;5086950;28;20107;-71
2023/06/21 04:13:35;;;;;;;21.15;18.10;;;;;;;17.50;100.00;101354.34;5085137;28;20036;-71
2023/06/21 04:16:01;;;;;;;22.45;18.35;;;;;;;17.47;100.00;101364.16;5086022;28;20413;-71
2023/06/21 04:18:26;;;;;;;25.35;17.60;;;;;;;17.40;100.00;101355.69;5085079;28;20036;-71
2023/06/21 04:20:51;;;;;;;21.95;18.30;;;;;;;17.48;100.00;101371.16;5078896;28;20090;-71
2023/06/21 04:23:17;;;;;;;24.13;18.95;;;;;;;17.47;100.00;101383.47;5082497;28;20055;-71
2023/06/21 04:25:42;;;;;;;20.90;18.42;;;;;;;17.43;100.00;101381.91;5084685;28;20028;-71
2023/06/21 04:28:10;;;;;;;23.15;19.50;;;;;;;17.43;100.00;101379.25;5080916;28;20396;-71
2023/06/21 04:30:35;;;;;;;22.67;18.00;;;;;;;17.49;100.00;101391.28;5085140;28;20040;-71
2023/06/21 04:33:00;;;;;;;25.23;19.65;;;;;;;17.48;100.00;101385.16;5083813;28;20464;-71
2023/06/21 04:35:25;;;;;;;22.48;18.55;;;;;;;17.50;100.00;101398.31;5086206;28;20024;-71
2023/06/21 04:37:51;;;;;;;23.70;20.40;;;;;;;17.47;100.00;101385.25;5082799;28;20043;-71
2023/06/21 04:40:21;;;;;;;27.40;20.20;;;;;;;17.46;100.00;101399.34;5086396;28;20036;-72
2023/06/21 04:42:47;;;;;;;23.13;20.17;;;;;;;17.51;100.00;101402.63;5084243;28;20035;-71
2023/06/21 04:45:14;;;;;;;23.38;19.77;;;;;;;17.61;100.00;101398.69;5072365;28;20070;-71
2023/06/21 04:47:41;;;;;;;24.05;19.90;;;;;;;17.67;100.00;101392.28;5085714;28;20036;-71
2023/06/21 04:50:06;;;;;;;28.02;20.63;;;;;;;17.84;100.00;101395.06;5084457;28;20031;-71
2023/06/21 04:52:32;;;;;;;23.20;19.50;;;;;;;17.97;100.00;101392.72;5085329;28;20396;-71
2023/06/21 04:54:59;;;;;;;23.30;19.83;;;;;;;18.16;100.00;101390.09;5082149;28;20021;-71
2023/06/21 04:57:25;;;;;;;26.80;21.13;;;;;;;18.24;100.00;101372.94;5070270;28;20028;-71
2023/06/21 04:59:50;;;;;;;25.77;20.33;;;;;;;18.40;100.00;101391.56;5085135;28;20028;-71
2023/06/21 05:02:15;;;;;;;26.40;21.10;;;;;;;18.49;100.00;101396.41;5083704;28;20062;-71
2023/06/21 05:04:41;;;;;;;30.80;21.88;;;;;;;18.46;100.00;101391.28;5087657;28;20025;-71
2023/06/21 05:07:06;;;;;;;25.15;21.33;;;;;;;18.43;100.00;101401.97;5083523;28;20032;-71
2023/06/21 05:09:31;;;;;;;27.58;21.73;;;;;;;18.35;100.00;101416.50;5089571;28;20055;-71
2023/06/21 05:11:57;;;;;;;26.60;21.77;;;;;;;18.23;100.00;101404.72;5082450;28;20103;-71
2023/06/21 05:14:22;;;;;;;28.13;22.77;;;;;;;18.31;100.00;101405.22;5087960;28;20383;-71
2023/06/21 05:16:47;;;;;;;26.52;22.55;;;;;;;18.58;100.00;101418.91;5082169;28;20407;-71
2023/06/21 05:19:13;;;;;;;27.52;22.00;;;;;;;18.81;100.00;101409.88;5087508;28;20020;-71
2023/06/21 05:21:38;;;;;;;27.40;22.25;;;;;;;19.05;100.00;101422.81;5068226;28;20477;-71
2023/06/21 05:24:04;;;;;;;25.92;21.38;;;;;;;19.16;100.00;101433.69;5086260;28;20020;-71
2023/06/21 05:26:29;;;;;;;26.60;22.25;;;;;;;19.13;100.00;101436.53;5081288;28;20028;-71
2023/06/21 05:28:54;;;;;;;26.60;21.55;;;;;;;19.05;100.00;101434.25;5087917;28;20044;-71
2023/06/21 05:31:19;;;;;;;24.33;21.77;;;;;;;19.00;100.00;101431.00;5082173;28;20027;-71
2023/06/21 05:33:45;;;;;;;25.20;22.00;;;;;;;18.84;100.00;101422.09;5084794;28;20385;-72
2023/06/21 05:36:10;;;;;;;28.73;22.83;;;;;;;18.74;100.00;101416.41;5082171;28;20029;-71
2023/06/21 05:38:35;;;;;;;26.75;22.50;;;;;;;18.73;100.00;101432.31;5087024;28;20103;-71
2023/06/21 05:41:00;;;;;;;28.52;23.98;;;;;;;18.70;100.00;101428.00;5082062;28;20051;-71
2023/06/21 05:43:26;;;;;;;26.52;23.60;;;;;;;18.72;100.00;101436.75;5079665;28;20040;-71
2023/06/21 05:45:51;;;;;;;30.17;25.20;;;;;;;18.66;100.00;101437.84;5081890;28;20032;-71
2023/06/21 05:48:17;;;;;;;28.98;23.65;;;;;;;18.70;100.00;101441.19;5082477;28;20501;-71
2023/06/21 05:50:43;;;;;;;28.45;23.73;;;;;;;18.75;100.00;101446.31;5084797;28;20128;-71
2023/06/21 05:53:08;;;;;;;31.02;24.25;;;;;;;18.71;100.00;101450.84;5083263;28;20053;-71
2023/06/21 05:55:33;;;;;;;25.98;23.17;;;;;;;18.66;100.00;101453.69;5082507;28;20032;-71
2023/06/21 05:57:58;;;;;;;26.20;23.08;;;;;;;18.66;100.00;101466.06;5076610;28;20028;-72
2023/06/21 06:00:24;;;;;;;30.05;23.85;;;;;;;18.66;100.00;101476.63;5084040;28;20374;-71
2023/06/21 06:02:49;;;;;;;26.52;23.00;;;;;;;18.70;100.00;101478.19;5083402;28;20032;-71
2023/06/21 06:05:16;;;;;;;28.77;24.92;;;;;;;18.82;100.00;101476.78;5082810;28;20032;-71
2023/06/21 06:07:41;;;;;;;29.10;25.27;;;;;;;18.83;100.00;101474.06;5084222;28;20486;-71
2023/06/21 06:10:09;;;;;;;29.48;25.30;;;;;;;18.89;100.00;101476.41;5083043;28;20036;-71
2023/06/21 06:12:35;;;;;;;32.03;25.25;;;;;;;19.00;100.00;101473.25;5083576;28;20035;-71
2023/06/21 06:15:00;;;;;;;32.72;26.70;;;;;;;19.01;100.00;101466.19;5084477;28;20099;-71
2023/06/21 06:17:26;;;;;;;28.42;24.17;;;;;;;19.08;100.00;101470.22;5082303;28;20020;-71
2023/06/21 06:19:52;;;;;;;29.67;24.50;;;;;;;19.03;100.00;101475.75;5084588;28;20054;-72
2023/06/21 06:22:17;;;;;;;28.77;23.75;;;;;;;19.03;100.00;101474.88;5075953;28;20064;-71
2023/06/21 06:24:42;;;;;;;28.25;23.08;;;;;;;18.99;100.00;101475.97;5087468;28;20039;-71
2023/06/21 06:27:10;;;;;;;28.60;25.02;;;;;;;19.07;100.00;101495.81;5081968;28;20096;-71
2023/06/21 06:29:35;;;;;;;26.55;22.50;;;;;;;19.16;100.00;101494.47;5087095;28;20046;-72
2023/06/21 06:32:00;;;;;;;29.17;21.42;;;;;;;19.27;100.00;101497.47;5080930;28;20107;-71
2023/06/21 06:34:26;;;;;;;27.50;22.00;;;;;;;19.34;100.00;101503.31;5086718;28;20030;-71
2023/06/21 06:36:51;;;;;;;24.27;19.60;;;;;;;19.34;100.00;101508.59;5082728;28;20028;-71
2023/06/21 06:39:16;;;;;;;23.33;18.75;;;;;;;19.32;100.00;101511.31;5084461;28;20536;-71
2023/06/21 06:41:41;;;;;;;22.75;16.88;;;;;;;19.34;100.00;101512.09;5083777;28;20040;-71
2023/06/21 06:44:07;;;;;;;20.25;15.55;;;;;;;19.34;100.00;101524.47;5083049;28;20070;-71
2023/06/21 06:46:32;;;;;;;17.20;14.93;;;;;;;19.30;100.00;101523.75;5083620;28;20024;-71
2023/06/21 06:48:57;;;;;;;19.42;15.85;;;;;;;19.26;100.00;101542.47;5083918;28;20543;-72
2023/06/21 06:51:23;;;;;;;18.77;14.43;;;;;;;19.42;100.00;101540.78;5083024;28;20031;-71
2023/06/21 06:53:49;;;;;;;20.05;15.10;;;;;;;19.70;100.00;101542.94;5082094;28;20032;-71
2023/06/21 06:56:14;;;;;;;17.67;14.75;;;;;;;19.96;100.00;101552.22;5075418;28;20077;-71
2023/06/21 06:58:43;;;;;;;19.23;14.52;;;;;;;20.01;100.00;101544.03;5082838;28;20034;-71
2023/06/21 07:01:08;;;;;;;19.23;12.85;;;;;;;19.94;100.00;101554.06;5078729;28;20025;-71
2023/06/21 07:03:34;;;;;;;17.15;13.00;;;;;;;19.76;100.00;101544.44;5083848;28;20035;-71
2023/06/21 07:05:59;;;;;;;15.90;12.60;;;;;;;19.50;100.00;101554.50;5081769;28;20054;-71
2023/06/21 07:08:25;;;;;;;14.38;12.70;;;;;;;19.37;100.00;101554.25;5082481;28;20482;-71
2023/06/21 07:10:50;;;;;;;19.23;13.57;;;;;;;19.50;100.00;101548.34;5084465;28;20032;-71
2023/06/21 07:13:16;;;;;;;17.42;14.73;;;;;;;19.65;100.00;101552.91;5079971;28;20025;-71
2023/06/21 07:15:41;;;;;;;20.00;15.68;;;;;;;19.73;100.00;101548.09;5074271;28;20031;-71
2023/06/21 07:18:07;;;;;;;28.80;17.40;;;;;;;19.82;100.00;101547.63;5080187;28;20037;-71
2023/06/21 07:20:32;;;;;;;24.40;17.65;;;;;;;19.95;100.00;101557.59;5084962;28;20039;-71
2023/06/21 07:22:57;;;;;;;22.15;17.60;;;;;;;20.09;100.00;101555.06;5075695;28;20063;-71
2023/06/21 07:25:23;;;;;;;23.08;17.67;;;;;;;20.12;100.00;101554.91;5076886;28;20029;-71
2023/06/21 07:27:48;;;;;;;22.77;16.67;;;;;;;20.14;100.00;101547.72;5081822;28;20071;-71
2023/06/21 07:30:14;;;;;;;21.25;16.60;;;;;;;20.35;100.00;101546.63;5084329;28;20037;-71
2023/06/21 07:32:39;;;;;;;20.65;17.88;;;;;;;20.53;100.00;101541.28;5080410;28;20047;-71
2023/06/21 07:35:07;;;;;;;19.92;16.08;;;;;;;20.62;100.00;101547.91;5081893;28;20035;-71
2023/06/21 07:37:33;;;;;;;19.10;15.77;;;;;;;20.52;100.00;101550.19;5083968;28;20126;-71
2023/06/21 07:39:59;;;;;;;18.55;14.23;;;;;;;20.51;100.00;101551.13;5084478;28;20447;-71
2023/06/21 07:42:25;;;;;;;16.05;14.07;;;;;;;20.50;100.00;101566.16;5087441;28;20032;-71
2023/06/21 07:44:54;;;;;;;15.88;13.40;;;;;;;20.58;100.00;101560.44;5085217;28;20043;-71
2023/06/21 07:47:20;;;;;;;14.38;11.80;;;;;;;20.49;100.00;101567.06;5086865;28;20024;-71
2023/06/21 07:49:46;;;;;;;14.38;12.18;;;;;;;20.35;100.00;101567.81;5086315;28;20353;-71
2023/06/21 07:52:11;;;;;;;14.52;12.98;;;;;;;20.51;100.00;101564.38;5086151;28;20111;-71
2023/06/21 07:54:37;;;;;;;16.83;13.82;;;;;;;20.91;100.00;101562.19;5082545;28;20089;-71
2023/06/21 07:57:03;;;;;;;13.90;12.50;;;;;;;21.24;100.00;101572.69;5083218;28;20059;-71
2023/06/21 07:59:28;;;;;;;15.80;14.15;;;;;;;21.41;100.00;101564.66;5086979;28;20436;-72
2023/06/21 08:01:56;;;;;;;17.45;14.88;;;;;;;21.39;100.00;101561.25;5083286;28;20542;-71
2023/06/21 08:04:28;;;;;;;15.75;14.20;;;;;;;21.23;100.00;101581.63;5084871;28;20540;-72
2023/06/21 08:06:53;;;;;;;14.95;12.25;;;;;;;21.17;100.00;101582.81;5087908;28;20060;-71
2023/06/21 08:09:18;;;;;;;17.08;13.10;;;;;;;21.16;100.00;101581.09;5084097;28;20048;-71
2023/06/21 08:11:44;;;;;;;13.68;12.25;;;;;;;21.19;100.00;101588.88;5089869;28;20475;-71
2023/06/21 08:14:09;;;;;;;11.63;10.43;;;;;;;21.30;100.00;101584.78;5083587;28;20059;-71
2023/06/21 08:16:34;;;;;;;14.23;10.38;;;;;;;21.36;100.00;101581.81;5090251;28;20470;-72
2023/06/21 08:19:00;;;;;;;12.18;10.10;;;;;;;21.42;100.00;101586.75;5083470;28;20053;-71
2023/06/21 08:21:25;;;;;;;9.57;8.40;;;;;;;21.51;100.00;101575.59;5074957;28;20388;-72
2023/06/21 08:23:50;;;;;;;10.25;8.85;;;;;;;21.61;100.00;101587.38;5088205;28;20024;-71
2023/06/21 08:26:16;;;;;;;9.30;7.75;;;;;;;21.68;100.00;101590.53;5083408;28;20020;-71
2023/06/21 08:28:41;;;;;;;8.65;7.53;;;;;;;21.67;100.00;101587.03;5089440;28;20543;-71
2023/06/21 08:31:06;;;;;;;10.23;7.72;;;;;;;21.71;100.00;101588.59;5082390;28;20037;-71
2023/06/21 08:33:31;;;;;;;11.40;8.27;;;;;;;21.68;100.00;101587.88;5089224;28;20020;-71
2023/06/21 08:35:57;;;;;;;10.40;8.68;;;;;;;21.76;100.00;101590.09;5083652;28;20079;-71
2023/06/21 08:38:22;;;;;;;10.68;8.07;;;;;;;21.83;100.00;101586.16;5086518;28;20375;-71
2023/06/21 08:40:47;;;;;;;9.23;7.82;;;;;;;21.70;100.00;101584.19;5085183;28;20032;-71
2023/06/21 08:43:13;;;;;;;10.50;8.07;;;;;;;21.85;100.00;101589.56;5084471;28;20040;-71
2023/06/21 08:45:38;;;;;;;8.80;7.90;;;;;;;21.90;99.39;101579.53;5085971;28;20024;-71
2023/06/21 08:48:06;;;;;;;9.85;7.47;;;;;;;22.20;100.00;101592.78;5084567;28;20021;-71
2023/06/21 08:50:36;;;;;;;10.63;9.02;;;;;;;22.33;94.83;101590.25;5085824;28;20090;-71
2023/06/21 08:53:05;;;;;;;10.80;8.77;;;;;;;22.20;97.12;101595.44;5083972;28;20021;-71
2023/06/21 08:55:35;;;;;;;13.88;9.57;;;;;;;22.15;99.37;101598.38;5087153;28;20035;-71
2023/06/21 08:58:05;;;;;;;11.13;8.63;;;;;;;22.30;98.99;101585.13;5085034;28;20039;-71
2023/06/21 09:00:36;;;;;;;15.63;9.23;;;;;;;22.57;100.00;101594.06;5084867;28;20476;-71
2023/06/21 09:03:07;;;;;;;11.50;10.07;;;;;;;22.86;100.00;101586.91;5086039;28;20414;-71
2023/06/21 09:05:37;;;;;;;10.40;9.40;;;;;;;23.16;94.37;101585.94;5082846;28;20028;-71
2023/06/21 09:08:07;;;;;;;10.52;7.72;;;;;;;23.21;97.77;101590.94;5085966;28;20028;-71
2023/06/21 09:10:43;;;;;;;6.13;5.53;;;;;;;23.18;93.04;101607.09;5083800;28;20085;-71
2023/06/21 09:13:10;;;;;;;6.25;5.35;;;;;;;23.31;90.55;101590.25;5085082;28;20024;-71
2023/06/21 09:15:37;;;;;;;11.05;6.45;;;;;;;23.32;94.66;101586.66;5083820;28;20032;-72
2023/06/21 09:18:02;;;;;;;6.18;5.07;;;;;;;23.45;83.32;101596.50;5085762;28;20059;-72
2023/06/21 09:20:28;;;;;;;5.18;4.68;;;;;;;23.40;82.44;101599.44;5082690;28;20070;-72
2023/06/21 09:22:57;;;;;;;8.38;4.38;;;;;;;23.53;81.75;101604.81;5076883;28;20479;-72
2023/06/21 09:25:23;;;;;;;8.13;6.72;;;;;;;23.42;84.66;101607.34;5084406;28;20422;-72
2023/06/21 09:27:48;;;;;;;6.25;5.43;;;;;;;23.38;76.06;101606.69;5083156;28;20032;-72
2023/06/21 09:30:14;;;;;;;8.25;4.43;;;;;;;23.21;78.62;101596.28;5085367;28;20069;-72
2023/06/21 09:32:39;;;;;;;4.60;4.05;;;;;;;23.32;77.41;101602.63;5082412;28;20435;-72
2023/06/21 09:35:05;;;;;;;4.25;3.40;;;;;;;23.40;78.39;101609.22;5085113;28;20039;-72
2023/06/21 09:37:35;;;;;;;5.13;3.40;;;;;;;23.39;78.17;101605.72;5083809;28;20112;-72
2023/06/21 09:40:01;;;;;;;4.88;3.50;;;;;;;23.47;71.70;101600.75;5084150;28;20057;-72
2023/06/21 09:42:27;;;;;;;4.25;3.85;;;;;;;23.73;72.42;101615.00;5084809;28;20084;-72
2023/06/21 09:44:53;;;;;;;5.55;3.70;;;;;;;23.85;74.67;101617.84;5083621;28;20474;-71
2023/06/21 09:47:19;;;;;;;5.82;4.90;;;;;;;23.96;75.42;101609.97;5091887;28;20031;-72
2023/06/21 09:49:46;;;;;;;8.40;5.20;;;;;;;24.20;72.57;101610.13;5085004;28;20036;-71
2023/06/21 09:52:11;;;;;;;7.43;5.00;;;;;;;24.02;78.44;101607.72;5084759;28;20037;-72
2023/06/21 09:54:44;;;;;;;6.72;5.80;;;;;;;23.95;73.25;101617.09;5082237;28;20031;-72
2023/06/21 09:57:09;;;;;;;9.80;5.03;;;;;;;24.20;74.72;101612.78;5084016;28;20502;-72
2023/06/21 09:59:39;;;;;;;4.63;4.00;;;;;;;24.41;70.90;101613.97;5084581;28;20032;-71
2023/06/21 10:02:05;;;;;;;5.72;3.83;;;;;;;24.55;65.78;101625.47;5083412;28;20058;-71
2023/06/21 10:04:40;;;;;;;3.85;3.17;;;;;;;24.69;64.70;101622.72;5082109;28;20051;-71
2023/06/21 10:07:05;;;;;;;4.00;3.25;;;;;;;24.89;62.06;101624.81;5084861;28;20026;-72
2023/06/21 10:09:36;;;;;;;4.57;4.00;;;;;;;24.96;63.29;101623.41;5080967;28;20023;-71
2023/06/21 10:12:02;;;;;;;4.25;3.50;;;;;;;25.10;67.25;101642.91;5084781;28;20031;-71
2023/06/21 10:14:29;;;;;;;5.88;4.30;;;;;;;25.23;61.55;101633.06;5081787;28;20036;-72
2023/06/21 10:16:55;;;;;;;4.97;4.47;;;;;;;24.86;60.18;101645.50;5082639;28;20365;-72
2023/06/21 10:19:23;;;;;;;6.72;5.22;;;;;;;24.92;59.25;101640.59;5081527;28;20047;-72
2023/06/21 10:22:01;;;;;;;5.63;4.63;;;;;;;25.44;65.68;101636.84;5075239;28;20031;-72
2023/06/21 10:24:29;;;;;;;5.28;3.90;;;;;;;25.99;68.64;101642.56;5081863;28;20372;-72
2023/06/21 10:26:56;;;;;;;6.80;4.15;;;;;;;26.25;63.67;101637.88;5084435;28;20031;-72
2023/06/21 10:29:23;;;;;;;4.65;3.00;;;;;;;25.98;58.24;101648.03;5082472;28;20484;-72
2023/06/21 10:31:52;;;;;;;3.47;3.10;;;;;;;25.55;58.80;101653.88;5083383;28;20510;-72
2023/06/21 10:34:21;;;;;;;3.63;2.92;;;;;;;25.30;60.27;101652.16;5084766;28;20025;-72
2023/06/21 10:36:49;;;;;;;3.78;3.10;;;;;;;25.22;57.81;101661.56;5081146;28;20476;-71
2023/06/21 10:39:16;;;;;;;5.15;4.40;;;;;;;25.52;57.34;101659.44;5085834;28;20028;-72
2023/06/21 10:41:43;;;;;;;6.45;5.55;;;;;;;25.84;57.60;101671.28;5080693;28;20033;-72
2023/06/21 10:44:10;;;;;;;6.40;5.80;;;;;;;25.81;53.81;101662.66;5086819;28;20070;-73
2023/06/21 10:46:38;;;;;;;6.22;4.72;;;;;;;25.84;60.46;101663.28;5075351;28;20029;-72
2023/06/21 10:49:03;;;;;;;7.22;4.70;;;;;;;26.04;58.80;101660.94;5086965;28;20020;-72
2023/06/21 10:51:33;;;;;;;7.18;4.82;;;;;;;26.08;57.09;101652.53;5079865;28;20035;-72
2023/06/21 10:53:59;;;;;;;5.47;4.97;;;;;;;25.92;60.57;101679.56;5088001;28;20028;-72
2023/06/21 10:56:25;;;;;;;7.47;5.60;;;;;;;26.16;56.50;101670.69;5077214;28;20017;-72
2023/06/21 10:58:50;;;;;;;8.48;6.53;;;;;;;26.47;58.60;101660.28;5085606;28;20024;-73
2023/06/21 11:01:15;;;;;;;7.83;7.03;;;;;;;26.10;55.40;101663.13;5081557;28;20491;-72
2023/06/21 11:03:41;;;;;;;7.30;6.60;;;;;;;25.57;60.34;101674.19;5080427;28;20281;-72